Zedelgem, Belgium
Current Conditions -  °F | °C
As of 8:20 AM on Thursday 23 Oct 2014 (Local Time) from EBOS Reporting Station
Broken Clouds Broken Clouds  
Wind Chill: 45°   Ceiling: 3800
Heat Index: 48°   Visibility: 6mi
Dew Point: 45°   Wind: 8mph
Humidity: 87%   Direction: 210°SSW
Pressure: 30.18"   Gusts: NA
Location:  51.14°N, 3.14°E
Report Text: EBOS 230620Z 21007KT 9999 FEW028 BKN038 09/07 Q1022 NOSIG
Loading
Personal Weather Stations






























Interactive Weather Map
Tropical Storm Tracking
New forecast layout! Learn more

10-Day Weather Forecast

Advertisements
Track Severe Weather on mobile